Time;durP1;ratioP1;P1;durP2;ratioP2;P2;SDS_P1;SDS_P2;PMS_P1;PMS_P2;Temp;Humidity;BMP_temperature;BMP_pressure;BME280_temperature;BME280_humidity;BME280_pressure;Samples;Min_cycle;Max_cycle;Signal;HPM_P1;HPM_P2
2022/05/25 00:00:00;;;;;;;8.70;6.25;;;;;;;;;;5077340;28;20381;-73
2022/05/25 00:02:47;;;;;;;8.50;5.88;;;;;;;;;;5100758;27;20488;-73
2022/05/25 00:05:18;;;;;;;8.30;6.95;;;;;;;;;;5102918;28;20043;-74
2022/05/25 00:07:44;;;;;;;8.73;6.32;;;;;;;;;;5119211;27;20042;-73
2022/05/25 00:10:14;;;;;;;12.23;6.85;;;;;;;;;;5078858;28;20043;-74
2022/05/25 00:12:41;;;;;;;11.05;6.78;;;;;;;;;;5095833;28;20035;-74
2022/05/25 00:15:12;;;;;;;8.05;6.32;;;;;;;;;;5074228;28;20097;-73
2022/05/25 00:17:39;;;;;;;8.63;6.43;;;;;;;;;;5108788;28;20036;-74
2022/05/25 00:20:06;;;;;;;8.50;6.68;;;;;;;;;;5095310;28;20039;-73
2022/05/25 00:22:52;;;;;;;10.07;6.13;;;;;;;;;;5116075;27;20071;-73
2022/05/25 00:25:21;;;;;;;8.75;7.20;;;;;;;;;;5102650;28;20093;-74
2022/05/25 00:27:48;;;;;;;12.40;6.40;;;;;;;;;;5095123;28;20070;-73
2022/05/25 00:30:16;;;;;;;9.27;6.88;;;;;;;;;;5109340;28;20085;-73
2022/05/25 00:32:49;;;;;;;8.70;6.85;;;;;;;;;;5078771;28;20042;-73
2022/05/25 00:35:17;;;;;;;11.32;7.63;;;;;;;;;;5111625;28;20398;-74
2022/05/25 00:37:44;;;;;;;11.10;7.55;;;;;;;;;;5111932;28;20044;-73
2022/05/25 00:40:15;;;;;;;12.07;7.13;;;;;;;;;;5094803;28;20059;-74
2022/05/25 00:42:45;;;;;;;9.43;7.28;;;;;;;;;;5111295;28;20053;-74
2022/05/25 00:45:12;;;;;;;10.63;7.50;;;;;;;;;;5103852;28;20078;-74
2022/05/25 00:47:42;;;;;;;8.32;7.28;;;;;;;;;;5108950;28;20043;-73
2022/05/25 00:50:14;;;;;;;11.68;6.88;;;;;;;;;;5095156;28;20039;-73
2022/05/25 00:52:42;;;;;;;12.40;8.35;;;;;;;;;;5110532;28;20699;-73
2022/05/25 00:55:10;;;;;;;9.98;7.78;;;;;;;;;;5092690;28;20046;-74
2022/05/25 00:57:42;;;;;;;16.42;8.60;;;;;;;;;;5110940;28;20492;-73
2022/05/25 01:00:13;;;;;;;13.10;8.27;;;;;;;;;;5079083;28;20504;-73
2022/05/25 01:02:43;;;;;;;8.63;6.95;;;;;;;;;;5093599;28;20457;-73
2022/05/25 01:05:11;;;;;;;12.48;8.00;;;;;;;;;;5111531;28;20058;-73
2022/05/25 01:07:56;;;;;;;15.02;8.15;;;;;;;;;;5068573;28;20039;-72
2022/05/25 01:10:33;;;;;;;9.95;7.53;;;;;;;;;;5112419;28;20042;-73
2022/05/25 01:13:19;;;;;;;8.50;7.35;;;;;;;;;;5103151;28;20039;-73
2022/05/25 01:16:04;;;;;;;10.38;7.80;;;;;;;;;;5100546;28;20075;-73
2022/05/25 01:18:42;;;;;;;11.82;8.60;;;;;;;;;;5103434;28;20036;-73
2022/05/25 01:21:27;;;;;;;13.55;8.30;;;;;;;;;;5110772;28;20038;-73
2022/05/25 01:24:08;;;;;;;12.02;7.75;;;;;;;;;;5112318;28;20281;-73
2022/05/25 01:26:56;;;;;;;11.82;7.88;;;;;;;;;;5101546;27;20396;-73
2022/05/25 01:29:23;;;;;;;13.63;8.82;;;;;;;;;;5118646;27;20430;-74
2022/05/25 01:31:58;;;;;;;11.88;8.43;;;;;;;;;;5108460;27;20051;-73
2022/05/25 01:34:30;;;;;;;11.93;7.93;;;;;;;;;;5094212;28;20047;-73
2022/05/25 01:37:06;;;;;;;14.57;8.80;;;;;;;;;;5076575;28;20036;-73
2022/05/25 01:39:36;;;;;;;11.65;8.77;;;;;;;;;;5110622;28;20517;-73
2022/05/25 01:42:10;;;;;;;10.90;8.70;;;;;;;;;;5121313;27;20572;-73
2022/05/25 01:44:39;;;;;;;11.73;8.25;;;;;;;;;;5082260;28;20486;-73
2022/05/25 01:47:07;;;;;;;12.68;8.25;;;;;;;;;;5097737;28;20057;-73
2022/05/25 01:49:35;;;;;;;10.60;8.05;;;;;;;;;;5079151;28;20553;-73
2022/05/25 01:52:04;;;;;;;11.35;7.60;;;;;;;;;;5093460;27;20497;-74
2022/05/25 01:54:33;;;;;;;12.40;9.05;;;;;;;;;;5110706;27;20029;-73
2022/05/25 01:57:04;;;;;;;10.57;8.50;;;;;;;;;;5093628;28;20517;-73
2022/05/25 01:59:30;;;;;;;13.05;8.93;;;;;;;;;;5111602;27;20047;-73
2022/05/25 02:04:50;;;;;;;13.10;9.30;;;;;;;;;;5097529;28;20047;-74
2022/05/25 02:07:35;;;;;;;12.05;9.23;;;;;;;;;;5076707;28;20123;-73
2022/05/25 02:10:11;;;;;;;12.95;8.85;;;;;;;;;;5111084;27;20481;-73
2022/05/25 02:12:37;;;;;;;9.10;7.57;;;;;;;;;;5110581;28;20039;-73
2022/05/25 02:15:06;;;;;;;12.32;8.65;;;;;;;;;;5110983;28;20044;-73
2022/05/25 02:17:38;;;;;;;11.80;9.00;;;;;;;;;;5124146;27;20060;-74
2022/05/25 02:20:11;;;;;;;12.75;8.30;;;;;;;;;;5108911;28;20123;-73
2022/05/25 02:22:48;;;;;;;13.13;8.77;;;;;;;;;;5092877;28;20036;-73
2022/05/25 02:25:38;;;;;;;9.27;7.53;;;;;;;;;;5102393;28;20043;-73
2022/05/25 02:28:10;;;;;;;12.23;7.65;;;;;;;;;;5105746;28;20119;-73
2022/05/25 02:30:42;;;;;;;9.68;7.63;;;;;;;;;;5076044;28;20056;-73
2022/05/25 02:33:13;;;;;;;12.55;8.30;;;;;;;;;;5105533;27;20101;-74
2022/05/25 02:35:41;;;;;;;10.43;7.53;;;;;;;;;;5091598;28;20184;-73
2022/05/25 02:38:08;;;;;;;10.65;7.85;;;;;;;;;;5109378;28;20130;-73
2022/05/25 02:40:36;;;;;;;11.88;7.88;;;;;;;;;;5094332;28;20046;-73
2022/05/25 02:43:03;;;;;;;13.32;8.77;;;;;;;;;;5109849;28;20078;-73
2022/05/25 02:45:29;;;;;;;11.43;8.27;;;;;;;;;;5109104;28;20079;-74
2022/05/25 02:47:56;;;;;;;11.52;8.57;;;;;;;;;;5097422;28;20035;-74
2022/05/25 02:50:22;;;;;;;18.33;8.75;;;;;;;;;;5096521;28;20055;-73
2022/05/25 02:52:49;;;;;;;12.13;8.10;;;;;;;;;;5072821;28;20082;-73
2022/05/25 02:55:16;;;;;;;15.93;8.20;;;;;;;;;;5109797;27;20062;-73
2022/05/25 02:57:43;;;;;;;13.07;8.50;;;;;;;;;;5114880;27;20054;-73
2022/05/25 03:00:10;;;;;;;10.73;8.43;;;;;;;;;;5090814;28;20063;-73
2022/05/25 03:02:36;;;;;;;12.32;8.98;;;;;;;;;;5114407;27;20059;-73
2022/05/25 03:05:03;;;;;;;10.82;7.65;;;;;;;;;;5092856;28;20138;-74
2022/05/25 03:07:30;;;;;;;12.25;8.27;;;;;;;;;;5070516;28;20493;-73
2022/05/25 03:09:59;;;;;;;11.05;7.97;;;;;;;;;;5077138;28;20139;-73
2022/05/25 03:12:26;;;;;;;9.48;7.15;;;;;;;;;;5124386;28;20058;-73
2022/05/25 03:14:52;;;;;;;8.95;6.57;;;;;;;;;;5072941;28;20040;-73
2022/05/25 03:17:19;;;;;;;12.20;7.75;;;;;;;;;;5112271;28;20521;-73
2022/05/25 03:19:52;;;;;;;11.23;6.82;;;;;;;;;;5112809;28;20036;-73
2022/05/25 03:22:19;;;;;;;12.35;7.40;;;;;;;;;;5114482;27;20047;-73
2022/05/25 03:24:47;;;;;;;9.77;6.55;;;;;;;;;;5096251;28;20048;-73
2022/05/25 03:27:13;;;;;;;7.72;6.32;;;;;;;;;;5117559;27;20404;-73
2022/05/25 03:29:41;;;;;;;11.93;7.03;;;;;;;;;;5097604;28;20047;-74
2022/05/25 03:32:08;;;;;;;11.52;6.75;;;;;;;;;;5090175;28;20050;-73
2022/05/25 03:34:34;;;;;;;8.40;6.10;;;;;;;;;;5095271;28;20055;-73
2022/05/25 03:37:01;;;;;;;8.85;6.38;;;;;;;;;;5114934;27;20040;-74
2022/05/25 03:39:28;;;;;;;12.20;7.35;;;;;;;;;;5096119;28;20039;-74
2022/05/25 03:42:00;;;;;;;11.70;6.75;;;;;;;;;;5078902;28;20036;-74
2022/05/25 03:44:26;;;;;;;8.38;6.57;;;;;;;;;;5111053;28;20036;-73
2022/05/25 03:46:53;;;;;;;12.15;6.65;;;;;;;;;;5081599;28;20043;-73
2022/05/25 03:49:20;;;;;;;13.35;6.38;;;;;;;;;;5107852;28;20119;-73
2022/05/25 03:51:48;;;;;;;9.13;6.15;;;;;;;;;;5089654;28;20039;-73
2022/05/25 03:54:15;;;;;;;12.05;6.82;;;;;;;;;;5094026;28;20054;-73
2022/05/25 03:56:41;;;;;;;9.07;6.68;;;;;;;;;;5090863;28;20040;-73
2022/05/25 03:59:08;;;;;;;13.40;6.63;;;;;;;;;;5090772;28;20032;-73
2022/05/25 04:01:36;;;;;;;10.40;7.20;;;;;;;;;;5109141;27;20110;-73
2022/05/25 04:04:03;;;;;;;11.20;6.60;;;;;;;;;;5113338;27;20069;-73
2022/05/25 04:06:30;;;;;;;13.85;8.38;;;;;;;;;;5082129;28;20178;-73
2022/05/25 04:08:56;;;;;;;12.00;7.63;;;;;;;;;;5068778;28;20486;-73
2022/05/25 04:11:39;;;;;;;11.05;7.25;;;;;;;;;;5092284;28;20127;-74
2022/05/25 04:14:05;;;;;;;10.25;7.28;;;;;;;;;;5110326;28;20077;-73
2022/05/25 04:16:34;;;;;;;15.88;7.47;;;;;;;;;;5107296;28;20032;-73
2022/05/25 04:19:01;;;;;;;9.35;7.45;;;;;;;;;;5090610;28;20097;-74
2022/05/25 04:21:31;;;;;;;11.50;7.70;;;;;;;;;;5077014;27;20035;-73
2022/05/25 04:24:19;;;;;;;8.07;6.10;;;;;;;;;;5070267;28;20081;-73
2022/05/25 04:26:48;;;;;;;10.98;6.53;;;;;;;;;;5105757;27;20044;-73
2022/05/25 04:29:22;;;;;;;10.02;7.03;;;;;;;;;;5107568;28;20039;-74
2022/05/25 04:31:58;;;;;;;;;;;;;;;;;;;;;
2022/05/25 04:34:28;;;;;;;10.43;8.55;;;;;;;;;;5100062;28;20039;-73
2022/05/25 04:37:48;;;;;;;12.18;7.13;;;;;;;;;;5106909;27;20047;-73
2022/05/25 04:39:42;;;;;;;11.43;7.53;;;;;;;;;;5094095;28;20066;-74
2022/05/25 04:42:18;;;;;;;11.95;7.93;;;;;;;;;;5103656;27;20446;-74
2022/05/25 04:44:45;;;;;;;11.25;7.63;;;;;;;;;;5076934;28;20044;-74
2022/05/25 04:47:15;;;;;;;14.02;8.80;;;;;;;;;;5088220;28;20123;-74
2022/05/25 04:49:47;;;;;;;15.43;8.10;;;;;;;;;;5100951;28;20156;-74
2022/05/25 04:52:17;;;;;;;16.65;7.85;;;;;;;;;;5111011;28;20071;-74
2022/05/25 04:54:44;;;;;;;10.27;6.85;;;;;;;;;;5082060;27;20036;-74
2022/05/25 04:57:20;;;;;;;9.68;6.18;;;;;;;;;;5091200;28;20036;-74
2022/05/25 04:59:59;;;;;;;6.75;5.45;;;;;;;;;;5069024;28;20043;-73
2022/05/25 05:02:29;;;;;;;12.13;7.55;;;;;;;;;;5105063;28;20052;-75
2022/05/25 05:04:56;;;;;;;14.30;7.10;;;;;;;;;;5105356;28;20204;-76
2022/05/25 05:07:33;;;;;;;11.63;6.45;;;;;;;;;;5089082;28;20035;-75
2022/05/25 05:10:01;;;;;;;9.25;6.70;;;;;;;;;;5116020;27;20130;-76
2022/05/25 05:12:30;;;;;;;10.18;5.97;;;;;;;;;;5107828;27;20043;-76
2022/05/25 05:14:57;;;;;;;12.50;7.10;;;;;;;;;;5092477;28;20053;-72
2022/05/25 05:17:27;;;;;;;9.65;6.72;;;;;;;;;;5091275;28;20040;-76
2022/05/25 05:19:56;;;;;;;8.63;6.20;;;;;;;;;;5073551;28;20047;-75
2022/05/25 05:22:25;;;;;;;8.15;6.40;;;;;;;;;;5091925;28;20039;-75
2022/05/25 05:24:51;;;;;;;11.30;6.20;;;;;;;;;;5105208;27;20572;-74
2022/05/25 05:27:20;;;;;;;12.45;6.53;;;;;;;;;;5100918;27;20038;-75
2022/05/25 05:29:47;;;;;;;9.57;6.47;;;;;;;;;;5084296;28;20303;-75
2022/05/25 05:32:16;;;;;;;10.48;6.72;;;;;;;;;;5092109;28;20497;-75
2022/05/25 05:34:43;;;;;;;14.35;6.28;;;;;;;;;;5080440;28;20035;-75
2022/05/25 05:37:13;;;;;;;6.80;5.05;;;;;;;;;;5098748;28;20034;-75
2022/05/25 05:39:45;;;;;;;9.90;5.40;;;;;;;;;;5075627;28;20085;-75
2022/05/25 05:42:13;;;;;;;10.80;5.57;;;;;;;;;;5103515;27;20032;-74
2022/05/25 05:44:49;;;;;;;8.52;5.93;;;;;;;;;;5082994;28;20088;-74
2022/05/25 05:47:23;;;;;;;6.88;4.80;;;;;;;;;;5092506;28;20051;-75
2022/05/25 05:49:53;;;;;;;9.40;5.35;;;;;;;;;;5109673;28;20067;-75
2022/05/25 05:52:19;;;;;;;10.10;5.25;;;;;;;;;;5112444;27;20047;-75
2022/05/25 05:54:46;;;;;;;12.73;5.00;;;;;;;;;;5080906;28;20463;-74
2022/05/25 05:57:13;;;;;;;6.03;3.88;;;;;;;;;;5095720;28;20043;-75
2022/05/25 05:59:40;;;;;;;7.55;4.43;;;;;;;;;;5105253;27;20512;-74
2022/05/25 06:02:07;;;;;;;10.38;3.90;;;;;;;;;;5076551;27;20435;-74
2022/05/25 06:04:34;;;;;;;9.32;4.45;;;;;;;;;;5101430;28;20079;-75
2022/05/25 06:07:00;;;;;;;7.70;4.10;;;;;;;;;;5107102;28;20071;-75
2022/05/25 06:09:27;;;;;;;5.88;4.03;;;;;;;;;;5106563;28;20040;-75
2022/05/25 06:11:53;;;;;;;11.13;4.55;;;;;;;;;;5090540;27;20035;-75
2022/05/25 06:14:20;;;;;;;10.65;5.28;;;;;;;;;;5104515;28;20524;-75
2022/05/25 06:19:33;;;;;;;9.35;3.95;;;;;;;;;;5094963;28;20068;-74
2022/05/25 06:22:01;;;;;;;7.20;3.72;;;;;;;;;;5098679;28;20063;-75
2022/05/25 06:24:28;;;;;;;6.40;3.75;;;;;;;;;;5115487;27;20051;-74
2022/05/25 06:26:55;;;;;;;9.55;3.38;;;;;;;;;;5108507;28;20491;-75
2022/05/25 06:29:21;;;;;;;9.68;3.45;;;;;;;;;;5094800;28;20039;-75
2022/05/25 06:31:49;;;;;;;9.05;2.95;;;;;;;;;;5075732;28;20122;-75
2022/05/25 06:34:16;;;;;;;5.72;2.78;;;;;;;;;;5108540;27;20315;-75
2022/05/25 06:36:43;;;;;;;6.05;3.67;;;;;;;;;;5073580;28;20067;-76
2022/05/25 06:39:10;;;;;;;5.47;3.10;;;;;;;;;;5092468;28;20039;-76
2022/05/25 06:41:36;;;;;;;7.47;3.65;;;;;;;;;;5102153;28;20040;-75
2022/05/25 06:44:02;;;;;;;10.75;3.78;;;;;;;;;;5093037;28;20459;-75
2022/05/25 06:46:29;;;;;;;10.13;3.85;;;;;;;;;;5090833;28;20035;-74
2022/05/25 06:49:00;;;;;;;7.88;4.88;;;;;;;;;;5110745;27;20397;-73
2022/05/25 06:51:31;;;;;;;5.05;3.72;;;;;;;;;;5077518;28;20067;-74
2022/05/25 06:54:00;;;;;;;12.00;3.85;;;;;;;;;;5103113;28;20036;-73
2022/05/25 06:56:27;;;;;;;8.93;4.15;;;;;;;;;;5090570;28;20501;-74
2022/05/25 06:58:54;;;;;;;5.80;3.83;;;;;;;;;;5093987;28;20589;-74
2022/05/25 07:01:24;;;;;;;9.32;5.43;;;;;;;;;;5068205;28;20059;-74
2022/05/25 07:03:54;;;;;;;7.57;4.30;;;;;;;;;;5085969;28;20466;-75
2022/05/25 07:06:22;;;;;;;6.47;4.13;;;;;;;;;;5087328;28;20035;-75
2022/05/25 07:08:49;;;;;;;9.82;4.32;;;;;;;;;;5087979;28;20574;-75
2022/05/25 07:11:15;;;;;;;7.53;3.60;;;;;;;;;;5105646;28;20046;-75
2022/05/25 07:13:42;;;;;;;5.82;3.47;;;;;;;;;;5078847;28;20036;-74
2022/05/25 07:16:10;;;;;;;7.55;3.67;;;;;;;;;;5066219;28;20079;-75
2022/05/25 07:18:36;;;;;;;4.63;3.58;;;;;;;;;;5096066;28;20057;-75
2022/05/25 07:21:11;;;;;;;4.63;3.72;;;;;;;;;;5101149;28;20078;-75
2022/05/25 07:23:39;;;;;;;5.63;3.47;;;;;;;;;;5092205;28;20094;-75
2022/05/25 07:26:06;;;;;;;7.13;3.30;;;;;;;;;;5100104;28;20447;-75
2022/05/25 07:28:35;;;;;;;4.57;2.45;;;;;;;;;;5097688;28;20397;-75
2022/05/25 07:31:07;;;;;;;5.90;2.97;;;;;;;;;;5090933;28;20039;-74
2022/05/25 07:33:34;;;;;;;6.15;2.85;;;;;;;;;;5104238;28;20047;-75
2022/05/25 07:36:04;;;;;;;6.07;3.30;;;;;;;;;;5107418;28;20527;-73
2022/05/25 07:38:33;;;;;;;4.25;2.40;;;;;;;;;;5071562;28;20622;-75
2022/05/25 07:41:00;;;;;;;5.80;2.55;;;;;;;;;;5109980;28;20039;-75
2022/05/25 07:43:30;;;;;;;3.83;3.10;;;;;;;;;;5086698;28;20064;-75
2022/05/25 07:45:57;;;;;;;7.40;3.55;;;;;;;;;;5076319;28;20055;-74
2022/05/25 07:48:23;;;;;;;6.43;3.42;;;;;;;;;;5105230;28;20470;-75
2022/05/25 07:50:49;;;;;;;3.83;2.88;;;;;;;;;;5078663;28;20397;-75
2022/05/25 07:56:03;;;;;;;6.88;3.25;;;;;;;;;;5111290;28;20059;-74
2022/05/25 07:58:32;;;;;;;4.88;2.83;;;;;;;;;;5114256;28;20032;-75
2022/05/25 08:01:03;;;;;;;5.80;3.10;;;;;;;;;;5096197;28;20040;-75
2022/05/25 08:06:16;;;;;;;4.53;2.40;;;;;;;;;;5088247;28;20467;-75
2022/05/25 08:08:44;;;;;;;11.88;3.53;;;;;;;;;;5098182;28;20458;-75
2022/05/25 08:11:47;;;;;;;;;;;;;;;;;;;;;
2022/05/25 08:14:19;;;;;;;5.10;2.55;;;;;;;;;;5087289;28;20135;-75
2022/05/25 08:16:46;;;;;;;4.45;3.00;;;;;;;;;;5112634;28;20043;-75
2022/05/25 08:19:12;;;;;;;3.88;2.53;;;;;;;;;;5078034;27;20428;-74
2022/05/25 08:21:39;;;;;;;5.28;2.97;;;;;;;;;;5083138;27;20045;-75
2022/05/25 08:24:05;;;;;;;6.43;3.40;;;;;;;;;;5098304;28;20501;-75
2022/05/25 08:26:32;;;;;;;5.25;3.05;;;;;;;;;;5116571;27;20036;-74
2022/05/25 08:28:58;;;;;;;9.80;3.13;;;;;;;;;;5062680;28;20501;-74
2022/05/25 08:31:25;;;;;;;3.58;3.00;;;;;;;;;;5117711;27;20070;-75
2022/05/25 08:33:51;;;;;;;8.52;3.55;;;;;;;;;;5101320;27;20126;-75
2022/05/25 08:36:18;;;;;;;6.25;4.00;;;;;;;;;;5107337;27;20530;-75
2022/05/25 08:38:44;;;;;;;8.18;4.72;;;;;;;;;;5091006;27;20035;-75
2022/05/25 08:41:11;;;;;;;8.90;4.75;;;;;;;;;;5110977;27;20036;-75
2022/05/25 08:43:46;;;;;;;8.73;5.35;;;;;;;;;;5079323;28;20040;-75
2022/05/25 08:46:17;;;;;;;8.35;5.25;;;;;;;;;;5092708;28;20050;-75
2022/05/25 08:48:44;;;;;;;8.05;5.78;;;;;;;;;;5102147;27;20122;-75
2022/05/25 08:51:13;;;;;;;8.02;6.10;;;;;;;;;;5116622;27;20035;-75
2022/05/25 08:53:40;;;;;;;9.50;6.45;;;;;;;;;;5120508;27;20493;-75
2022/05/25 08:56:13;;;;;;;9.00;7.60;;;;;;;;;;5073333;28;20067;-75
2022/05/25 08:59:02;;;;;;;18.15;6.95;;;;;;;;;;5109406;27;20050;-75
2022/05/25 09:01:33;;;;;;;10.90;6.68;;;;;;;;;;5110354;28;20124;-75
2022/05/25 09:04:09;;;;;;;9.80;6.53;;;;;;;;;;5103030;28;20039;-75
2022/05/25 09:06:47;;;;;;;9.35;6.47;;;;;;;;;;5090391;27;20043;-75
2022/05/25 09:09:20;;;;;;;9.02;7.03;;;;;;;;;;5104162;27;20032;-75
2022/05/25 09:11:51;;;;;;;10.30;5.90;;;;;;;;;;5116037;27;20043;-74
2022/05/25 09:14:23;;;;;;;7.80;5.13;;;;;;;;;;5098040;28;20128;-75
2022/05/25 09:16:53;;;;;;;8.85;5.18;;;;;;;;;;5109822;28;20039;-73
2022/05/25 09:19:28;;;;;;;10.27;7.28;;;;;;;;;;5114349;27;20420;-77
2022/05/25 09:22:06;;;;;;;12.82;7.88;;;;;;;;;;5094728;28;20035;-76
2022/05/25 09:24:33;;;;;;;9.50;8.50;;;;;;;;;;5090420;28;20032;-76
2022/05/25 09:27:00;;;;;;;15.82;9.20;;;;;;;;;;5110422;28;20127;-74
2022/05/25 09:29:27;;;;;;;11.23;8.45;;;;;;;;;;5059625;28;20975;-73
2022/05/25 09:32:29;;;;;;;12.38;9.48;;;;;;;;;;5092347;27;20097;-73
2022/05/25 09:34:55;;;;;;;14.25;9.18;;;;;;;;;;5070300;28;20309;-73
2022/05/25 09:37:28;;;;;;;10.35;6.80;;;;;;;;;;5093806;28;20069;-73
2022/05/25 09:39:54;;;;;;;;;;;;;;;;;;5096154;28;20108;-73
2022/05/25 09:42:22;;;;;;;6.55;5.95;;;;;;;;;;5081452;27;20022;-73
2022/05/25 09:44:52;;;;;;;9.10;7.13;;;;;;;;;;5093347;28;20036;-73
2022/05/25 09:47:37;;;;;;;13.48;9.02;;;;;;;;;;5114602;27;20100;-75
2022/05/25 09:50:04;;;;;;;11.32;9.23;;;;;;;;;;5081672;27;20032;-74
2022/05/25 09:52:36;;;;;;;10.82;9.27;;;;;;;;;;5072321;28;20063;-75
2022/05/25 09:55:10;;;;;;;15.23;10.65;;;;;;;;;;5064371;28;20570;-75
2022/05/25 09:57:45;;;;;;;13.85;9.30;;;;;;;;;;5092994;28;20040;-75
2022/05/25 10:00:23;;;;;;;14.35;10.95;;;;;;;;;;5102740;28;20063;-75
2022/05/25 10:02:51;;;;;;;12.00;9.27;;;;;;;;;;5105782;28;20109;-75
2022/05/25 10:05:17;;;;;;;7.22;6.22;;;;;;;;;;5075398;28;20044;-74
2022/05/25 10:07:53;;;;;;;7.63;5.43;;;;;;;;;;5086606;28;20046;-75
2022/05/25 10:10:29;;;;;;;4.70;2.97;;;;;;;;;;5097044;27;20063;-75
2022/05/25 10:13:00;;;;;;;6.97;3.00;;;;;;;;;;5063153;28;20262;-75
2022/05/25 10:15:33;;;;;;;4.13;2.55;;;;;;;;;;5097521;27;20970;-75
2022/05/25 10:17:59;;;;;;;8.27;4.72;;;;;;;;;;5090190;28;20040;-74
2022/05/25 10:20:28;;;;;;;9.75;6.50;;;;;;;;;;5101283;27;20039;-74
2022/05/25 10:23:03;;;;;;;8.90;7.68;;;;;;;;;;5092231;28;20088;-75
2022/05/25 10:25:32;;;;;;;11.00;6.38;;;;;;;;;;5080193;28;20397;-75
2022/05/25 10:28:00;;;;;;;7.70;4.13;;;;;;;;;;5064280;28;20047;-75
2022/05/25 10:39:13;;;;;;;1.83;1.30;;;;;;;;;;5102826;27;20131;-74
2022/05/25 10:41:41;;;;;;;1.90;1.42;;;;;;;;;;5102427;28;20423;-74
2022/05/25 10:44:22;;;;;;;3.33;2.05;;;;;;;;;;5070841;28;20036;-74
2022/05/25 10:46:54;;;;;;;3.38;2.10;;;;;;;;;;5085574;27;20283;-74
2022/05/25 10:49:43;;;;;;;5.43;2.47;;;;;;;;;;5072655;28;20036;-74
2022/05/25 10:52:09;;;;;;;4.50;2.50;;;;;;;;;;5106756;28;20622;-74
2022/05/25 10:54:47;;;;;;;4.00;2.92;;;;;;;;;;5098551;27;20157;-74
2022/05/25 10:57:40;;;;;;;6.93;5.00;;;;;;;;;;5088289;28;20034;-74
2022/05/25 11:00:09;;;;;;;6.28;4.45;;;;;;;;;;5111595;28;20046;-74
2022/05/25 11:02:56;;;;;;;6.80;5.00;;;;;;;;;;5094941;28;20421;-74
2022/05/25 11:05:41;;;;;;;8.68;5.97;;;;;;;;;;5076940;28;20043;-74
2022/05/25 11:08:21;;;;;;;8.63;7.68;;;;;;;;;;5084414;28;20497;-75
2022/05/25 11:11:03;;;;;;;13.77;12.27;;;;;;;;;;5095986;28;20035;-75
2022/05/25 11:13:42;;;;;;;17.13;12.02;;;;;;;;;;5072149;28;20495;-75
2022/05/25 11:16:29;;;;;;;17.05;12.88;;;;;;;;;;5068811;28;20051;-76
2022/05/25 11:18:55;;;;;;;13.88;10.45;;;;;;;;;;5108882;28;20035;-76
2022/05/25 11:21:22;;;;;;;14.23;8.85;;;;;;;;;;5089698;28;20136;-76
2022/05/25 11:23:51;;;;;;;13.80;8.75;;;;;;;;;;5109887;28;20050;-75
2022/05/25 11:26:41;;;;;;;13.18;6.35;;;;;;;;;;5080181;28;20050;-76
2022/05/25 11:29:29;;;;;;;6.32;2.90;;;;;;;;;;5063016;28;20052;-76
2022/05/25 11:32:09;;;;;;;2.92;1.60;;;;;;;;;;5109925;28;20092;-76
2022/05/25 11:34:53;;;;;;;1.95;1.48;;;;;;;;;;5099495;28;20088;-76
2022/05/25 11:37:20;;;;;;;3.35;1.40;;;;;;;;;;5103952;27;20548;-78
2022/05/25 11:39:59;;;;;;;7.38;1.38;;;;;;;;;;5117638;27;20035;-77
2022/05/25 11:42:35;;;;;;;5.20;1.50;;;;;;;;;;5117424;27;20566;-76
2022/05/25 11:45:07;;;;;;;3.90;1.20;;;;;;;;;;5101108;28;20054;-77
2022/05/25 11:47:37;;;;;;;2.58;1.60;;;;;;;;;;5112453;27;20040;-77
2022/05/25 11:50:21;;;;;;;7.72;1.20;;;;;;;;;;5114972;27;20376;-76
2022/05/25 11:52:56;;;;;;;1.98;1.02;;;;;;;;;;5101549;27;20474;-77
2022/05/25 11:55:26;;;;;;;2.45;1.25;;;;;;;;;;5091328;27;20044;-78
2022/05/25 11:57:53;;;;;;;2.88;1.15;;;;;;;;;;5115667;27;20477;-77
2022/05/25 12:00:38;;;;;;;2.50;0.98;;;;;;;;;;5092372;28;20512;-77
2022/05/25 12:03:24;;;;;;;2.83;1.05;;;;;;;;;;5094061;28;20494;-75
2022/05/25 12:05:58;;;;;;;2.05;0.82;;;;;;;;;;5104420;28;20093;-78
2022/05/25 12:08:29;;;;;;;1.60;1.02;;;;;;;;;;5112094;27;20039;-75
2022/05/25 12:11:06;;;;;;;4.90;1.17;;;;;;;;;;5095863;28;20055;-76
2022/05/25 12:13:33;;;;;;;3.95;1.33;;;;;;;;;;5103957;27;20050;-77
2022/05/25 12:16:18;;;;;;;1.92;1.00;;;;;;;;;;5082229;28;20489;-75
2022/05/25 12:18:54;;;;;;;4.20;1.20;;;;;;;;;;5109921;27;20039;-76
2022/05/25 12:21:23;;;;;;;1.77;0.98;;;;;;;;;;5067268;28;20173;-76
2022/05/25 12:23:59;;;;;;;1.50;1.05;;;;;;;;;;5076563;28;20082;-76
2022/05/25 12:26:33;;;;;;;5.47;1.42;;;;;;;;;;5078261;28;20039;-77
2022/05/25 12:29:06;;;;;;;4.60;1.35;;;;;;;;;;5080197;27;20067;-76
2022/05/25 12:31:34;;;;;;;2.92;1.40;;;;;;;;;;5112110;27;20055;-75
2022/05/25 12:34:01;;;;;;;6.90;1.83;;;;;;;;;;5075632;28;20209;-76
2022/05/25 12:36:28;;;;;;;4.85;1.08;;;;;;;;;;5116006;27;20092;-75
2022/05/25 12:38:54;;;;;;;3.55;2.00;;;;;;;;;;5094448;27;20043;-76
2022/05/25 12:41:32;;;;;;;6.45;1.35;;;;;;;;;;5102789;27;20039;-75
2022/05/25 12:44:00;;;;;;;2.97;1.30;;;;;;;;;;5117715;27;20061;-75
2022/05/25 12:49:32;;;;;;;1.40;1.05;;;;;;;;;;5101445;27;20051;-75
2022/05/25 12:51:59;;;;;;;3.10;1.25;;;;;;;;;;5093937;28;20036;-76
2022/05/25 12:54:28;;;;;;;2.80;0.73;;;;;;;;;;5109342;27;20039;-75
2022/05/25 12:56:56;;;;;;;2.30;1.02;;;;;;;;;;5092862;28;20394;-76
2022/05/25 12:59:32;;;;;;;3.90;0.90;;;;;;;;;;5109192;28;20402;-75
2022/05/25 13:02:18;;;;;;;2.75;1.20;;;;;;;;;;5109436;28;20130;-75
2022/05/25 13:04:45;;;;;;;3.78;1.15;;;;;;;;;;5077556;28;20044;-74
2022/05/25 13:07:31;;;;;;;4.22;1.27;;;;;;;;;;5105769;27;20079;-75
2022/05/25 13:09:58;;;;;;;3.25;1.17;;;;;;;;;;5073228;28;20040;-75
2022/05/25 13:12:38;;;;;;;3.60;1.63;;;;;;;;;;5078839;27;20040;-75
2022/05/25 13:15:05;;;;;;;3.83;1.10;;;;;;;;;;5094065;28;20040;-76
2022/05/25 13:17:45;;;;;;;3.22;0.90;;;;;;;;;;5074701;28;20058;-75
2022/05/25 13:20:47;;;;;;;3.28;1.02;;;;;;;;;;5088765;27;20122;-74
2022/05/25 13:23:33;;;;;;;2.92;1.20;;;;;;;;;;5087069;27;20657;-75
2022/05/25 13:26:03;;;;;;;4.65;1.02;;;;;;;;;;5104470;27;20494;-76
2022/05/25 13:28:32;;;;;;;1.83;0.80;;;;;;;;;;5089764;28;20039;-74
2022/05/25 13:31:06;;;;;;;2.53;1.20;;;;;;;;;;5093527;28;20043;-75
2022/05/25 13:33:32;;;;;;;;;;;;;;;;;;5109538;28;20096;-76
2022/05/25 13:36:06;;;;;;;4.68;1.40;;;;;;;;;;5111088;27;20382;-75
2022/05/25 13:38:43;;;;;;;5.80;1.38;;;;;;;;;;5091989;28;20046;-75
2022/05/25 13:41:40;;;;;;;1.60;1.00;;;;;;;;;;5089364;28;20397;-74
2022/05/25 13:44:08;;;;;;;2.92;1.02;;;;;;;;;;5106935;28;20036;-75
2022/05/25 13:46:47;;;;;;;6.78;1.30;;;;;;;;;;5062490;28;20039;-74
2022/05/25 13:49:22;;;;;;;2.83;1.02;;;;;;;;;;5101157;28;20047;-74
2022/05/25 13:51:48;;;;;;;3.25;1.58;;;;;;;;;;5106566;28;20501;-75
2022/05/25 13:54:25;;;;;;;3.97;1.45;;;;;;;;;;5107416;27;20048;-74
2022/05/25 13:56:52;;;;;;;3.50;0.93;;;;;;;;;;5100193;28;20043;-76
2022/05/25 13:59:22;;;;;;;3.45;1.30;;;;;;;;;;5104691;27;20039;-75
2022/05/25 14:01:49;;;;;;;3.47;1.80;;;;;;;;;;5069133;28;20564;-74
2022/05/25 14:04:26;;;;;;;3.85;1.40;;;;;;;;;;5085096;28;20058;-75
2022/05/25 14:06:54;;;;;;;2.75;1.58;;;;;;;;;;5085510;28;20766;-75
2022/05/25 14:12:14;;;;;;;7.22;2.17;;;;;;;;;;5109142;27;20105;-75
2022/05/25 14:14:48;;;;;;;3.40;1.70;;;;;;;;;;5106250;27;20055;-75
2022/05/25 14:17:21;;;;;;;5.43;1.77;;;;;;;;;;5106526;28;20044;-75
2022/05/25 14:19:55;;;;;;;7.18;1.92;;;;;;;;;;5104960;28;20656;-75
2022/05/25 14:22:23;;;;;;;3.75;1.55;;;;;;;;;;5099928;27;20870;-75
2022/05/25 14:24:57;;;;;;;7.55;1.75;;;;;;;;;;5088923;27;20051;-74
2022/05/25 14:27:35;;;;;;;5.82;1.52;;;;;;;;;;5105180;27;20044;-75
2022/05/25 14:30:22;;;;;;;5.00;1.48;;;;;;;;;;5105668;28;20046;-75
2022/05/25 14:32:57;;;;;;;6.75;1.48;;;;;;;;;;5071300;28;20074;-75
2022/05/25 14:35:24;;;;;;;10.98;1.75;;;;;;;;;;5101839;28;20044;-76
2022/05/25 14:37:50;;;;;;;8.95;1.77;;;;;;;;;;5102447;28;20134;-76
2022/05/25 14:40:18;;;;;;;12.40;2.22;;;;;;;;;;5077893;28;20505;-76
2022/05/25 14:42:51;;;;;;;3.20;1.05;;;;;;;;;;5091565;27;20375;-75
2022/05/25 14:45:18;;;;;;;3.92;1.48;;;;;;;;;;5100721;28;20131;-77
2022/05/25 14:47:47;;;;;;;3.53;1.50;;;;;;;;;;5088227;28;20359;-76
2022/05/25 14:50:21;;;;;;;4.85;1.48;;;;;;;;;;5102957;28;20411;-75
2022/05/25 14:53:09;;;;;;;5.95;1.52;;;;;;;;;;5090161;27;20058;-76
2022/05/25 14:55:37;;;;;;;3.50;1.23;;;;;;;;;;5082530;28;20040;-75
2022/05/25 14:58:13;;;;;;;4.93;1.85;;;;;;;;;;5101806;27;20084;-75
2022/05/25 15:00:42;;;;;;;6.20;1.70;;;;;;;;;;5108146;28;20431;-75
2022/05/25 15:03:08;;;;;;;5.47;1.77;;;;;;;;;;5103888;28;20499;-76
2022/05/25 15:05:44;;;;;;;5.38;1.50;;;;;;;;;;5070366;28;20036;-76
2022/05/25 15:08:27;;;;;;;8.88;1.35;;;;;;;;;;5086834;28;20574;-75
2022/05/25 15:10:56;;;;;;;8.38;1.80;;;;;;;;;;5090636;28;20106;-76
2022/05/25 15:18:29;;;;;;;4.25;1.23;;;;;;;;;;5073590;28;20186;-76
2022/05/25 15:19:03;;;;;;;9.45;1.70;;;;;;;;;;5097827;28;20043;-75
2022/05/25 15:21:34;;;;;;;4.55;1.92;;;;;;;;;;5104544;28;20533;-75
2022/05/25 15:24:05;;;;;;;9.20;1.85;;;;;;;;;;5087171;28;20193;-74
2022/05/25 15:26:39;;;;;;;3.95;1.63;;;;;;;;;;5103176;28;20081;-74
2022/05/25 15:29:25;;;;;;;3.85;1.88;;;;;;;;;;5104964;28;20518;-75
2022/05/25 15:31:53;;;;;;;6.45;1.65;;;;;;;;;;5067164;28;20227;-74
2022/05/25 15:34:23;;;;;;;3.97;1.50;;;;;;;;;;5105421;28;20490;-74